sensor_id;sensor_type;location;lat;lon;timestamp;pressure;altitude;pressure_sealevel;temperature;humidity
56721;BME280;53183;47.412;18.884;2023-02-23T00:01:53;99256.16;;;7.93;75.87
56721;BME280;53183;47.412;18.884;2023-02-23T00:04:21;99245.66;;;7.93;75.56
56721;BME280;53183;47.412;18.884;2023-02-23T00:06:50;99248.13;;;7.96;75.07
56721;BME280;53183;47.412;18.884;2023-02-23T00:09:20;99246.72;;;7.89;76.29
56721;BME280;53183;47.412;18.884;2023-02-23T00:11:53;99254.47;;;7.92;75.73
56721;BME280;53183;47.412;18.884;2023-02-23T00:14:24;99251.84;;;7.92;75.34
56721;BME280;53183;47.412;18.884;2023-02-23T00:16:54;99246.87;;;7.86;75.48
56721;BME280;53183;47.412;18.884;2023-02-23T00:19:23;99244.94;;;7.89;75.75
56721;BME280;53183;47.412;18.884;2023-02-23T00:21:52;99239.19;;;7.81;75.93
56721;BME280;53183;47.412;18.884;2023-02-23T00:24:19;99245.97;;;7.87;74.99
56721;BME280;53183;47.412;18.884;2023-02-23T00:26:47;99242.75;;;7.80;75.79
56721;BME280;53183;47.412;18.884;2023-02-23T00:29:20;99251.06;;;7.71;75.57
56721;BME280;53183;47.412;18.884;2023-02-23T00:31:49;99247.06;;;7.62;76.56
56721;BME280;53183;47.412;18.884;2023-02-23T00:34:18;99247.66;;;7.69;76.33
56721;BME280;53183;47.412;18.884;2023-02-23T00:36:51;99248.50;;;7.69;75.58
56721;BME280;53183;47.412;18.884;2023-02-23T00:39:21;99251.00;;;7.72;75.87
56721;BME280;53183;47.412;18.884;2023-02-23T00:41:55;99245.66;;;7.74;75.72
56721;BME280;53183;47.412;18.884;2023-02-23T00:44:23;99250.78;;;7.58;76.39
56721;BME280;53183;47.412;18.884;2023-02-23T00:46:51;99249.97;;;7.56;77.27
56721;BME280;53183;47.412;18.884;2023-02-23T00:49:20;99253.41;;;7.58;76.27
56721;BME280;53183;47.412;18.884;2023-02-23T00:51:48;99257.59;;;7.62;75.36
56721;BME280;53183;47.412;18.884;2023-02-23T00:54:16;99260.03;;;7.67;75.96
56721;BME280;53183;47.412;18.884;2023-02-23T00:56:44;99252.28;;;7.64;75.44
56721;BME280;53183;47.412;18.884;2023-02-23T00:59:13;99258.81;;;7.55;75.68
56721;BME280;53183;47.412;18.884;2023-02-23T01:01:40;99251.19;;;7.49;76.05
56721;BME280;53183;47.412;18.884;2023-02-23T01:04:09;99259.91;;;7.49;75.38
56721;BME280;53183;47.412;18.884;2023-02-23T01:06:38;99255.72;;;7.45;77.06
56721;BME280;53183;47.412;18.884;2023-02-23T01:09:09;99261.22;;;7.41;76.37
56721;BME280;53183;47.412;18.884;2023-02-23T01:11:37;99259.06;;;7.49;75.42
56721;BME280;53183;47.412;18.884;2023-02-23T01:14:08;99250.88;;;7.36;76.39
56721;BME280;53183;47.412;18.884;2023-02-23T01:16:36;99259.69;;;7.35;76.44
56721;BME280;53183;47.412;18.884;2023-02-23T01:19:06;99255.38;;;7.34;77.10
56721;BME280;53183;47.412;18.884;2023-02-23T01:21:35;99257.66;;;7.42;75.63
56721;BME280;53183;47.412;18.884;2023-02-23T01:24:05;99255.81;;;7.44;74.93
56721;BME280;53183;47.412;18.884;2023-02-23T01:26:36;99258.03;;;7.33;75.45
56721;BME280;53183;47.412;18.884;2023-02-23T01:29:09;99255.22;;;7.37;75.62
56721;BME280;53183;47.412;18.884;2023-02-23T01:31:39;99259.09;;;7.28;75.88
56721;BME280;53183;47.412;18.884;2023-02-23T01:34:09;99259.16;;;7.27;76.08
56721;BME280;53183;47.412;18.884;2023-02-23T01:36:39;99255.63;;;7.28;75.66
56721;BME280;53183;47.412;18.884;2023-02-23T01:39:10;99251.34;;;7.25;75.68
56721;BME280;53183;47.412;18.884;2023-02-23T01:41:39;99256.47;;;7.28;76.19
56721;BME280;53183;47.412;18.884;2023-02-23T01:46:58;99253.72;;;7.32;75.42
56721;BME280;53183;47.412;18.884;2023-02-23T01:49:28;99255.94;;;7.20;76.00
56721;BME280;53183;47.412;18.884;2023-02-23T01:52:00;99249.22;;;7.15;76.63
56721;BME280;53183;47.412;18.884;2023-02-23T01:54:32;99245.31;;;7.03;76.37
56721;BME280;53183;47.412;18.884;2023-02-23T01:57:03;99246.37;;;6.99;77.82
56721;BME280;53183;47.412;18.884;2023-02-23T01:59:46;99248.34;;;7.14;75.89
56721;BME280;53183;47.412;18.884;2023-02-23T02:02:20;99250.56;;;7.23;74.96
56721;BME280;53183;47.412;18.884;2023-02-23T02:04:49;99248.41;;;7.13;76.51
56721;BME280;53183;47.412;18.884;2023-02-23T02:07:21;99249.53;;;7.07;75.57
56721;BME280;53183;47.412;18.884;2023-02-23T02:09:53;99246.25;;;7.02;76.29
56721;BME280;53183;47.412;18.884;2023-02-23T02:12:40;99252.09;;;7.09;75.51
56721;BME280;53183;47.412;18.884;2023-02-23T02:15:11;99247.50;;;6.93;76.01
56721;BME280;53183;47.412;18.884;2023-02-23T02:18:05;99237.53;;;7.01;75.97
56721;BME280;53183;47.412;18.884;2023-02-23T02:21:17;99250.12;;;6.93;76.17
56721;BME280;53183;47.412;18.884;2023-02-23T02:46:57;99250.78;;;6.78;75.84
56721;BME280;53183;47.412;18.884;2023-02-23T02:49:44;99250.19;;;6.71;76.34
56721;BME280;53183;47.412;18.884;2023-02-23T02:52:33;99257.41;;;6.66;77.34
56721;BME280;53183;47.412;18.884;2023-02-23T02:55:18;99252.22;;;6.65;77.87
56721;BME280;53183;47.412;18.884;2023-02-23T02:57:51;99257.53;;;6.63;77.17
56721;BME280;53183;47.412;18.884;2023-02-23T03:00:23;99253.31;;;6.59;78.24
56721;BME280;53183;47.412;18.884;2023-02-23T03:03:40;99254.28;;;6.56;78.04
56721;BME280;53183;47.412;18.884;2023-02-23T03:06:34;99252.16;;;6.66;76.51
56721;BME280;53183;47.412;18.884;2023-02-23T03:09:42;99260.28;;;6.60;77.47
56721;BME280;53183;47.412;18.884;2023-02-23T03:12:41;99256.00;;;6.57;77.12
56721;BME280;53183;47.412;18.884;2023-02-23T03:15:46;99259.34;;;6.61;76.79
56721;BME280;53183;47.412;18.884;2023-02-23T03:18:46;99257.66;;;6.60;76.62
56721;BME280;53183;47.412;18.884;2023-02-23T03:21:50;99256.91;;;6.56;76.66
56721;BME280;53183;47.412;18.884;2023-02-23T03:25:17;99256.19;;;6.53;76.95
56721;BME280;53183;47.412;18.884;2023-02-23T03:28:12;99264.22;;;6.70;75.87
56721;BME280;53183;47.412;18.884;2023-02-23T03:31:17;99259.78;;;6.72;75.72
56721;BME280;53183;47.412;18.884;2023-02-23T03:34:14;99264.81;;;6.77;75.74
56721;BME280;53183;47.412;18.884;2023-02-23T03:37:18;99266.56;;;6.78;75.64
56721;BME280;53183;47.412;18.884;2023-02-23T03:40:11;99264.19;;;6.72;75.95
56721;BME280;53183;47.412;18.884;2023-02-23T03:42:59;99270.28;;;6.72;75.29
56721;BME280;53183;47.412;18.884;2023-02-23T03:45:47;99267.06;;;6.66;76.44
56721;BME280;53183;47.412;18.884;2023-02-23T03:48:35;99263.16;;;6.74;75.53
56721;BME280;53183;47.412;18.884;2023-02-23T03:51:23;99263.31;;;6.71;75.38
56721;BME280;53183;47.412;18.884;2023-02-23T03:54:17;99268.63;;;6.70;75.87
56721;BME280;53183;47.412;18.884;2023-02-23T03:57:07;99266.84;;;6.70;75.40
56721;BME280;53183;47.412;18.884;2023-02-23T04:00:00;99265.28;;;6.66;76.36
56721;BME280;53183;47.412;18.884;2023-02-23T04:02:49;99272.22;;;6.67;76.37
56721;BME280;53183;47.412;18.884;2023-02-23T04:05:38;99271.44;;;6.65;76.69
56721;BME280;53183;47.412;18.884;2023-02-23T04:08:33;99266.06;;;6.68;75.82
56721;BME280;53183;47.412;18.884;2023-02-23T04:11:32;99266.19;;;6.65;75.73
56721;BME280;53183;47.412;18.884;2023-02-23T04:14:28;99272.75;;;6.55;77.07
56721;BME280;53183;47.412;18.884;2023-02-23T04:16:57;99270.84;;;6.58;76.95
56721;BME280;53183;47.412;18.884;2023-02-23T04:19:26;99269.72;;;6.64;76.21
56721;BME280;53183;47.412;18.884;2023-02-23T04:21:54;99268.75;;;6.67;76.50
56721;BME280;53183;47.412;18.884;2023-02-23T04:24:21;99270.44;;;6.68;75.89
56721;BME280;53183;47.412;18.884;2023-02-23T04:26:49;99268.81;;;6.65;75.88
56721;BME280;53183;47.412;18.884;2023-02-23T04:29:16;99268.81;;;6.65;76.27
56721;BME280;53183;47.412;18.884;2023-02-23T04:31:43;99266.00;;;6.70;75.60
56721;BME280;53183;47.412;18.884;2023-02-23T04:34:11;99269.72;;;6.64;76.41
56721;BME280;53183;47.412;18.884;2023-02-23T04:36:38;99264.72;;;6.58;76.67
56721;BME280;53183;47.412;18.884;2023-02-23T04:39:06;99273.03;;;6.69;76.00
56721;BME280;53183;47.412;18.884;2023-02-23T04:41:34;99268.22;;;6.58;76.06
56721;BME280;53183;47.412;18.884;2023-02-23T04:44:01;99269.06;;;6.59;76.08
56721;BME280;53183;47.412;18.884;2023-02-23T04:46:29;99269.97;;;6.58;75.78
56721;BME280;53183;47.412;18.884;2023-02-23T04:48:57;99271.09;;;6.52;75.98
56721;BME280;53183;47.412;18.884;2023-02-23T04:51:24;99272.78;;;6.53;76.71
56721;BME280;53183;47.412;18.884;2023-02-23T04:53:56;99272.91;;;6.50;75.78
56721;BME280;53183;47.412;18.884;2023-02-23T04:56:23;99267.13;;;6.42;76.08
56721;BME280;53183;47.412;18.884;2023-02-23T04:58:50;99276.78;;;6.42;76.82
56721;BME280;53183;47.412;18.884;2023-02-23T05:01:18;99267.88;;;6.46;76.66
56721;BME280;53183;47.412;18.884;2023-02-23T05:03:50;99268.97;;;6.40;76.88
56721;BME280;53183;47.412;18.884;2023-02-23T05:06:18;99268.03;;;6.41;76.93
56721;BME280;53183;47.412;18.884;2023-02-23T05:08:45;99268.91;;;6.42;76.64
56721;BME280;53183;47.412;18.884;2023-02-23T05:11:13;99274.91;;;6.45;77.24
56721;BME280;53183;47.412;18.884;2023-02-23T05:13:40;99271.53;;;6.42;76.01
56721;BME280;53183;47.412;18.884;2023-02-23T05:16:07;99276.72;;;6.43;76.63
56721;BME280;53183;47.412;18.884;2023-02-23T05:18:34;99273.78;;;6.51;75.86
56721;BME280;53183;47.412;18.884;2023-02-23T05:21:04;99282.66;;;6.48;76.36
56721;BME280;53183;47.412;18.884;2023-02-23T05:23:34;99275.00;;;6.42;76.31
56721;BME280;53183;47.412;18.884;2023-02-23T05:26:04;99275.88;;;6.43;76.72
56721;BME280;53183;47.412;18.884;2023-02-23T05:28:33;99283.84;;;6.40;76.25
56721;BME280;53183;47.412;18.884;2023-02-23T05:31:01;99284.78;;;6.39;77.16
56721;BME280;53183;47.412;18.884;2023-02-23T05:33:32;99283.00;;;6.39;76.68
56721;BME280;53183;47.412;18.884;2023-02-23T05:36:03;99280.56;;;6.34;77.07
56721;BME280;53183;47.412;18.884;2023-02-23T05:38:31;99279.41;;;6.42;76.08
56721;BME280;53183;47.412;18.884;2023-02-23T05:40:58;99280.88;;;6.49;75.65
56721;BME280;53183;47.412;18.884;2023-02-23T05:43:25;99278.28;;;6.47;75.39
56721;BME280;53183;47.412;18.884;2023-02-23T05:45:53;99284.78;;;6.39;75.84
56721;BME280;53183;47.412;18.884;2023-02-23T05:48:21;99282.19;;;6.37;75.63
56721;BME280;53183;47.412;18.884;2023-02-23T05:50:48;99289.66;;;6.26;76.95
56721;BME280;53183;47.412;18.884;2023-02-23T05:53:15;99292.94;;;6.31;76.16
56721;BME280;53183;47.412;18.884;2023-02-23T05:55:43;99289.16;;;6.38;74.68
56721;BME280;53183;47.412;18.884;2023-02-23T05:58:10;99289.31;;;6.35;75.81
56721;BME280;53183;47.412;18.884;2023-02-23T06:00:37;99301.88;;;6.49;73.62
56721;BME280;53183;47.412;18.884;2023-02-23T06:03:04;99300.87;;;6.51;74.18
56721;BME280;53183;47.412;18.884;2023-02-23T06:05:32;99300.34;;;6.43;75.40
56721;BME280;53183;47.412;18.884;2023-02-23T06:07:59;99306.50;;;6.42;73.73
56721;BME280;53183;47.412;18.884;2023-02-23T06:10:26;99303.56;;;6.50;73.31
56721;BME280;53183;47.412;18.884;2023-02-23T06:12:54;99309.78;;;6.47;73.63
56721;BME280;53183;47.412;18.884;2023-02-23T06:15:21;99311.25;;;6.54;72.45
56721;BME280;53183;47.412;18.884;2023-02-23T06:17:48;99315.53;;;6.57;73.65
56721;BME280;53183;47.412;18.884;2023-02-23T06:20:15;99324.50;;;6.51;73.08
56721;BME280;53183;47.412;18.884;2023-02-23T06:22:43;99323.37;;;6.58;73.05
56721;BME280;53183;47.412;18.884;2023-02-23T06:25:10;99326.75;;;6.61;73.17
56721;BME280;53183;47.412;18.884;2023-02-23T06:27:38;99329.22;;;6.65;73.11
56721;BME280;53183;47.412;18.884;2023-02-23T06:30:06;99327.00;;;6.54;72.28
56721;BME280;53183;47.412;18.884;2023-02-23T06:32:34;99333.31;;;6.50;73.44
56721;BME280;53183;47.412;18.884;2023-02-23T06:35:02;99339.16;;;6.57;73.00
56721;BME280;53183;47.412;18.884;2023-02-23T06:37:32;99339.03;;;6.60;72.18
56721;BME280;53183;47.412;18.884;2023-02-23T06:39:59;99341.78;;;6.57;72.27
56721;BME280;53183;47.412;18.884;2023-02-23T06:42:26;99352.41;;;6.54;72.79
56721;BME280;53183;47.412;18.884;2023-02-23T06:44:53;99355.59;;;6.62;72.62
56721;BME280;53183;47.412;18.884;2023-02-23T06:47:21;99350.22;;;6.65;72.47
56721;BME280;53183;47.412;18.884;2023-02-23T06:49:48;99351.31;;;6.81;72.20
56721;BME280;53183;47.412;18.884;2023-02-23T06:52:15;99354.84;;;6.80;72.80
56721;BME280;53183;47.412;18.884;2023-02-23T06:54:43;99353.37;;;6.95;71.09
56721;BME280;53183;47.412;18.884;2023-02-23T06:57:10;99351.41;;;7.00;70.89
56721;BME280;53183;47.412;18.884;2023-02-23T06:59:38;99355.69;;;7.03;70.53
56721;BME280;53183;47.412;18.884;2023-02-23T07:02:06;99364.38;;;7.05;70.30
56721;BME280;53183;47.412;18.884;2023-02-23T07:04:33;99359.09;;;7.05;70.08
56721;BME280;53183;47.412;18.884;2023-02-23T07:07:00;99358.97;;;7.08;69.89
56721;BME280;53183;47.412;18.884;2023-02-23T07:09:28;99357.53;;;7.01;70.34
56721;BME280;53183;47.412;18.884;2023-02-23T07:11:56;99363.50;;;7.04;70.55
56721;BME280;53183;47.412;18.884;2023-02-23T07:14:23;99362.25;;;7.13;69.41
56721;BME280;53183;47.412;18.884;2023-02-23T07:16:53;99365.00;;;7.10;69.31
56721;BME280;53183;47.412;18.884;2023-02-23T07:19:20;99358.84;;;7.11;69.97
56721;BME280;53183;47.412;18.884;2023-02-23T07:21:49;99363.56;;;7.03;70.26
56721;BME280;53183;47.412;18.884;2023-02-23T07:24:16;99366.78;;;7.10;69.96
56721;BME280;53183;47.412;18.884;2023-02-23T07:26:43;99368.91;;;7.22;69.10
56721;BME280;53183;47.412;18.884;2023-02-23T07:29:13;99375.03;;;7.22;69.56
56721;BME280;53183;47.412;18.884;2023-02-23T07:31:40;99370.56;;;7.24;68.75
56721;BME280;53183;47.412;18.884;2023-02-23T07:34:08;99367.41;;;7.37;68.60
56721;BME280;53183;47.412;18.884;2023-02-23T07:36:35;99369.03;;;7.39;68.90
56721;BME280;53183;47.412;18.884;2023-02-23T07:39:03;99367.84;;;7.46;69.24
56721;BME280;53183;47.412;18.884;2023-02-23T07:41:31;99370.19;;;7.54;68.04
56721;BME280;53183;47.412;18.884;2023-02-23T07:43:59;99373.44;;;7.59;68.14
56721;BME280;53183;47.412;18.884;2023-02-23T07:46:26;99374.22;;;7.82;66.21
56721;BME280;53183;47.412;18.884;2023-02-23T07:48:53;99366.59;;;7.75;67.13
56721;BME280;53183;47.412;18.884;2023-02-23T07:51:20;99371.72;;;7.79;66.39
56721;BME280;53183;47.412;18.884;2023-02-23T07:53:48;99375.06;;;7.82;66.13
56721;BME280;53183;47.412;18.884;2023-02-23T07:56:15;99375.59;;;7.90;65.82
56721;BME280;53183;47.412;18.884;2023-02-23T07:58:43;99377.59;;;8.04;64.95
56721;BME280;53183;47.412;18.884;2023-02-23T08:01:11;99367.06;;;8.04;64.93
56721;BME280;53183;47.412;18.884;2023-02-23T08:03:39;99375.75;;;8.06;65.46
56721;BME280;53183;47.412;18.884;2023-02-23T08:06:06;99371.22;;;8.10;66.62
56721;BME280;53183;47.412;18.884;2023-02-23T08:08:33;99370.00;;;8.17;64.49
56721;BME280;53183;47.412;18.884;2023-02-23T08:11:03;99373.44;;;8.38;63.54
56721;BME280;53183;47.412;18.884;2023-02-23T08:13:31;99377.63;;;8.42;64.53
56721;BME280;53183;47.412;18.884;2023-02-23T08:15:58;99369.25;;;8.53;63.34
56721;BME280;53183;47.412;18.884;2023-02-23T08:18:26;99375.41;;;8.71;62.27
56721;BME280;53183;47.412;18.884;2023-02-23T08:21:01;99383.72;;;8.80;61.64
56721;BME280;53183;47.412;18.884;2023-02-23T08:23:31;99385.81;;;8.74;61.74
56721;BME280;53183;47.412;18.884;2023-02-23T08:25:59;99390.63;;;8.83;61.34
56721;BME280;53183;47.412;18.884;2023-02-23T08:28:27;99387.31;;;8.97;60.83
56721;BME280;53183;47.412;18.884;2023-02-23T08:30:55;99384.41;;;9.03;60.21
56721;BME280;53183;47.412;18.884;2023-02-23T08:33:23;99390.22;;;8.73;62.45
56721;BME280;53183;47.412;18.884;2023-02-23T08:35:50;99393.56;;;8.77;62.71
56721;BME280;53183;47.412;18.884;2023-02-23T08:38:19;99398.69;;;8.80;60.79
56721;BME280;53183;47.412;18.884;2023-02-23T08:40:46;99389.16;;;8.77;62.68
56721;BME280;53183;47.412;18.884;2023-02-23T08:43:14;99386.13;;;8.85;61.46
56721;BME280;53183;47.412;18.884;2023-02-23T08:45:42;99395.62;;;8.89;61.12
56721;BME280;53183;47.412;18.884;2023-02-23T08:48:09;99394.00;;;9.04;60.38
56721;BME280;53183;47.412;18.884;2023-02-23T08:50:36;99396.75;;;9.20;59.82
56721;BME280;53183;47.412;18.884;2023-02-23T08:53:04;99399.13;;;9.24;60.27
56721;BME280;53183;47.412;18.884;2023-02-23T08:55:31;99403.09;;;9.33;60.74
56721;BME280;53183;47.412;18.884;2023-02-23T08:58:01;99399.13;;;9.24;60.98
56721;BME280;53183;47.412;18.884;2023-02-23T09:00:28;99396.84;;;9.35;60.10
56721;BME280;53183;47.412;18.884;2023-02-23T09:02:57;99404.84;;;9.51;58.38
56721;BME280;53183;47.412;18.884;2023-02-23T09:05:24;99396.75;;;9.54;59.05
56721;BME280;53183;47.412;18.884;2023-02-23T09:07:52;99395.59;;;9.43;59.10
56721;BME280;53183;47.412;18.884;2023-02-23T09:10:19;99402.50;;;9.45;58.46
56721;BME280;53183;47.412;18.884;2023-02-23T09:12:46;99400.31;;;9.53;58.60
56721;BME280;53183;47.412;18.884;2023-02-23T09:15:14;99398.31;;;9.58;60.51
56721;BME280;53183;47.412;18.884;2023-02-23T09:17:41;99405.13;;;9.62;59.19
56721;BME280;53183;47.412;18.884;2023-02-23T09:20:11;99404.34;;;9.60;58.48
56721;BME280;53183;47.412;18.884;2023-02-23T09:22:40;99396.81;;;9.70;58.21
56721;BME280;53183;47.412;18.884;2023-02-23T09:25:11;99407.91;;;9.59;58.80
56721;BME280;53183;47.412;18.884;2023-02-23T09:27:38;99401.13;;;9.89;58.26
56721;BME280;53183;47.412;18.884;2023-02-23T09:30:06;99402.69;;;9.93;57.38
56721;BME280;53183;47.412;18.884;2023-02-23T09:32:33;99397.94;;;9.99;57.52
56721;BME280;53183;47.412;18.884;2023-02-23T09:35:02;99398.56;;;10.04;57.37
56721;BME280;53183;47.412;18.884;2023-02-23T09:37:29;99407.59;;;9.83;58.25
56721;BME280;53183;47.412;18.884;2023-02-23T09:39:56;99406.19;;;9.76;59.49
56721;BME280;53183;47.412;18.884;2023-02-23T09:42:38;99416.06;;;9.72;58.73
56721;BME280;53183;47.412;18.884;2023-02-23T09:45:25;99410.16;;;9.50;60.76
56721;BME280;53183;47.412;18.884;2023-02-23T09:48:09;99407.22;;;9.56;59.31
56721;BME280;53183;47.412;18.884;2023-02-23T09:50:39;99405.59;;;9.53;59.79
56721;BME280;53183;47.412;18.884;2023-02-23T09:56:38;99407.47;;;9.69;59.15
56721;BME280;53183;47.412;18.884;2023-02-23T09:59:12;99407.09;;;9.92;58.70
56721;BME280;53183;47.412;18.884;2023-02-23T10:06:44;99405.47;;;9.90;59.13
56721;BME280;53183;47.412;18.884;2023-02-23T10:10:17;99404.94;;;10.00;57.07
56721;BME280;53183;47.412;18.884;2023-02-23T10:15:32;99409.91;;;9.89;58.26
56721;BME280;53183;47.412;18.884;2023-02-23T10:23:15;99420.63;;;9.86;58.80
56721;BME280;53183;47.412;18.884;2023-02-23T10:25:47;99409.31;;;9.84;58.61
56721;BME280;53183;47.412;18.884;2023-02-23T10:28:17;99411.28;;;9.96;59.49
56721;BME280;53183;47.412;18.884;2023-02-23T10:30:48;99406.47;;;10.04;57.83
56721;BME280;53183;47.412;18.884;2023-02-23T10:33:27;99401.88;;;10.08;59.33
56721;BME280;53183;47.412;18.884;2023-02-23T10:36:04;99400.78;;;10.12;59.12
56721;BME280;53183;47.412;18.884;2023-02-23T10:38:39;99404.75;;;10.03;59.17
56721;BME280;53183;47.412;18.884;2023-02-23T10:41:07;99392.50;;;10.02;59.03
56721;BME280;53183;47.412;18.884;2023-02-23T10:43:35;99397.06;;;9.99;59.58
56721;BME280;53183;47.412;18.884;2023-02-23T10:46:03;99385.50;;;10.01;58.73
56721;BME280;53183;47.412;18.884;2023-02-23T10:48:36;99388.91;;;10.03;58.25
56721;BME280;53183;47.412;18.884;2023-02-23T10:51:17;99390.91;;;10.16;57.79
56721;BME280;53183;47.412;18.884;2023-02-23T10:53:46;99385.38;;;10.20;56.52
56721;BME280;53183;47.412;18.884;2023-02-23T10:56:17;99384.88;;;10.14;58.13
56721;BME280;53183;47.412;18.884;2023-02-23T10:58:49;99381.28;;;10.15;58.95
56721;BME280;53183;47.412;18.884;2023-02-23T11:01:44;99378.47;;;10.18;57.90
56721;BME280;53183;47.412;18.884;2023-02-23T11:04:32;99373.94;;;10.20;56.97
56721;BME280;53183;47.412;18.884;2023-02-23T11:09:33;99370.94;;;10.10;58.13
56721;BME280;53183;47.412;18.884;2023-02-23T11:12:20;99365.00;;;10.22;58.01
56721;BME280;53183;47.412;18.884;2023-02-23T11:14:50;99364.12;;;10.39;56.66
56721;BME280;53183;47.412;18.884;2023-02-23T11:17:32;99364.44;;;10.17;57.25
56721;BME280;53183;47.412;18.884;2023-02-23T11:20:04;99362.53;;;10.19;57.70
56721;BME280;53183;47.412;18.884;2023-02-23T11:22:35;99358.09;;;10.20;58.23
56721;BME280;53183;47.412;18.884;2023-02-23T11:25:14;99359.56;;;10.25;58.25
56721;BME280;53183;47.412;18.884;2023-02-23T11:27:48;99363.47;;;10.18;58.10
56721;BME280;53183;47.412;18.884;2023-02-23T11:30:20;99351.28;;;10.16;59.08
56721;BME280;53183;47.412;18.884;2023-02-23T11:32:50;99355.94;;;10.28;57.96
56721;BME280;53183;47.412;18.884;2023-02-23T11:37:46;99350.78;;;10.25;57.69
56721;BME280;53183;47.412;18.884;2023-02-23T11:43:08;99350.56;;;10.45;56.96
56721;BME280;53183;47.412;18.884;2023-02-23T11:48:21;99340.84;;;10.62;56.54
56721;BME280;53183;47.412;18.884;2023-02-23T11:50:54;99348.53;;;10.66;57.66
56721;BME280;53183;47.412;18.884;2023-02-23T11:53:38;99335.72;;;10.74;56.09
56721;BME280;53183;47.412;18.884;2023-02-23T11:56:08;99338.87;;;10.81;56.32
56721;BME280;53183;47.412;18.884;2023-02-23T11:59:00;99342.62;;;10.93;55.34
56721;BME280;53183;47.412;18.884;2023-02-23T12:04:42;99329.97;;;10.98;55.89
56721;BME280;53183;47.412;18.884;2023-02-23T12:10:23;99332.75;;;10.80;55.72
56721;BME280;53183;47.412;18.884;2023-02-23T12:18:45;99317.56;;;10.68;55.68
56721;BME280;53183;47.412;18.884;2023-02-23T12:21:38;99317.06;;;10.62;56.62
56721;BME280;53183;47.412;18.884;2023-02-23T12:26:44;99308.19;;;10.63;56.49
56721;BME280;53183;47.412;18.884;2023-02-23T12:29:22;99313.75;;;10.74;56.15
56721;BME280;53183;47.412;18.884;2023-02-23T12:31:59;99309.63;;;10.68;56.42
56721;BME280;53183;47.412;18.884;2023-02-23T12:35:00;99305.13;;;10.70;57.17
56721;BME280;53183;47.412;18.884;2023-02-23T12:38:20;99306.38;;;10.79;57.71
56721;BME280;53183;47.412;18.884;2023-02-23T12:41:02;99290.41;;;10.96;56.28
56721;BME280;53183;47.412;18.884;2023-02-23T12:43:36;99291.50;;;10.92;55.37
56721;BME280;53183;47.412;18.884;2023-02-23T12:46:15;99283.22;;;10.98;56.56
56721;BME280;53183;47.412;18.884;2023-02-23T12:51:55;99279.50;;;11.17;55.93
56721;BME280;53183;47.412;18.884;2023-02-23T12:54:24;99274.50;;;11.12;56.22
56721;BME280;53183;47.412;18.884;2023-02-23T12:57:17;99268.44;;;11.10;55.77
56721;BME280;53183;47.412;18.884;2023-02-23T13:02:51;99264.50;;;11.32;55.70
56721;BME280;53183;47.412;18.884;2023-02-23T13:05:30;99262.59;;;11.19;54.31
56721;BME280;53183;47.412;18.884;2023-02-23T13:11:21;99263.91;;;11.12;55.86
56721;BME280;53183;47.412;18.884;2023-02-23T13:14:03;99251.34;;;11.16;56.12
56721;BME280;53183;47.412;18.884;2023-02-23T13:16:42;99250.12;;;11.21;54.87
56721;BME280;53183;47.412;18.884;2023-02-23T13:19:25;99240.78;;;11.30;54.99
56721;BME280;53183;47.412;18.884;2023-02-23T13:24:36;99253.28;;;11.42;54.81
56721;BME280;53183;47.412;18.884;2023-02-23T13:27:10;99257.13;;;11.37;54.84
56721;BME280;53183;47.412;18.884;2023-02-23T13:29:44;99255.53;;;11.34;54.56
56721;BME280;53183;47.412;18.884;2023-02-23T13:32:20;99243.62;;;11.41;54.31
56721;BME280;53183;47.412;18.884;2023-02-23T13:34:53;99252.13;;;11.32;55.25
56721;BME280;53183;47.412;18.884;2023-02-23T13:37:26;99252.31;;;11.43;55.48
56721;BME280;53183;47.412;18.884;2023-02-23T13:40:19;99247.41;;;11.37;54.51
56721;BME280;53183;47.412;18.884;2023-02-23T13:48:32;99242.22;;;11.36;54.77
56721;BME280;53183;47.412;18.884;2023-02-23T13:51:34;99240.97;;;11.27;55.33
56721;BME280;53183;47.412;18.884;2023-02-23T13:56:33;99237.22;;;11.45;54.36
56721;BME280;53183;47.412;18.884;2023-02-23T13:59:06;99235.50;;;11.30;55.32
56721;BME280;53183;47.412;18.884;2023-02-23T14:01:37;99237.78;;;11.36;55.38
56721;BME280;53183;47.412;18.884;2023-02-23T14:04:13;99235.41;;;11.46;53.90
56721;BME280;53183;47.412;18.884;2023-02-23T14:06:50;99244.38;;;11.43;54.62
56721;BME280;53183;47.412;18.884;2023-02-23T14:09:23;99231.81;;;11.47;54.21
56721;BME280;53183;47.412;18.884;2023-02-23T14:17:11;99231.72;;;11.34;54.56
56721;BME280;53183;47.412;18.884;2023-02-23T14:28:45;99237.47;;;11.41;55.05
56721;BME280;53183;47.412;18.884;2023-02-23T14:33:50;99235.03;;;11.38;55.39
56721;BME280;53183;47.412;18.884;2023-02-23T14:46:56;99235.25;;;10.90;58.04
56721;BME280;53183;47.412;18.884;2023-02-23T14:49:29;99229.47;;;10.84;57.94
56721;BME280;53183;47.412;18.884;2023-02-23T14:52:05;99232.97;;;10.84;58.18
56721;BME280;53183;47.412;18.884;2023-02-23T14:54:38;99232.38;;;10.79;58.72
56721;BME280;53183;47.412;18.884;2023-02-23T14:57:25;99234.69;;;10.69;58.97
56721;BME280;53183;47.412;18.884;2023-02-23T14:59:59;99232.50;;;10.62;58.93
56721;BME280;53183;47.412;18.884;2023-02-23T15:02:29;99223.34;;;10.53;59.11
56721;BME280;53183;47.412;18.884;2023-02-23T15:04:56;99226.50;;;10.44;59.84
56721;BME280;53183;47.412;18.884;2023-02-23T15:09:56;99227.69;;;10.38;60.63
56721;BME280;53183;47.412;18.884;2023-02-23T15:12:33;99229.16;;;10.44;60.10
56721;BME280;53183;47.412;18.884;2023-02-23T15:15:05;99225.22;;;10.35;60.65
56721;BME280;53183;47.412;18.884;2023-02-23T15:17:45;99219.94;;;10.19;62.02
56721;BME280;53183;47.412;18.884;2023-02-23T15:20:16;99221.72;;;10.19;61.26
56721;BME280;53183;47.412;18.884;2023-02-23T15:22:49;99225.38;;;10.16;61.65
56721;BME280;53183;47.412;18.884;2023-02-23T15:25:23;99222.84;;;10.15;61.64
56721;BME280;53183;47.412;18.884;2023-02-23T15:27:52;99222.06;;;10.13;61.79
56721;BME280;53183;47.412;18.884;2023-02-23T15:30:30;99224.03;;;10.09;61.87